createdAt,value
2016-12-20T00:00:17.072Z,0.75
2016-12-20T00:01:28.059Z,0.66
2016-12-20T00:02:39.046Z,0.69
2016-12-20T00:03:50.031Z,0.58
2016-12-20T00:05:01.016Z,0.69
2016-12-20T00:06:12.003Z,0.64
2016-12-20T00:07:23.016Z,0.63
2016-12-20T00:08:34.229Z,0.58
2016-12-20T00:09:45.217Z,0.56
2016-12-20T00:10:56.204Z,0.58
2016-12-20T00:12:07.191Z,0.52
2016-12-20T00:13:18.379Z,0.63
2016-12-20T00:14:29.368Z,0.64
2016-12-20T00:15:40.409Z,0.66
2016-12-20T00:16:51.401Z,0.58
2016-12-20T00:18:02.380Z,0.66
2016-12-20T00:19:13.369Z,0.57
2016-12-20T00:20:24.790Z,0.56
2016-12-20T00:21:35.775Z,0.58
2016-12-20T00:22:46.960Z,0.53
2016-12-20T00:23:57.945Z,0.53
2016-12-20T00:25:08.923Z,0.53
2016-12-20T00:26:19.909Z,0.58
2016-12-20T00:27:30.895Z,0.58
2016-12-20T00:28:41.883Z,0.6
2016-12-20T00:29:52.904Z,0.52
2016-12-20T00:31:03.881Z,0.48
2016-12-20T00:32:14.875Z,0.6
2016-12-20T00:33:26.064Z,0.57
2016-12-20T00:34:37.074Z,0.56
2016-12-20T00:35:48.258Z,0.47
2016-12-20T00:36:59.241Z,0.42
2016-12-20T00:38:10.222Z,0.39
2016-12-20T00:39:21.211Z,0.37
2016-12-20T00:40:32.260Z,0.37
2016-12-20T00:41:43.244Z,0.41
2016-12-20T00:42:54.230Z,0.35
2016-12-20T00:44:05.217Z,0.28
2016-12-20T00:45:16.205Z,0.32
2016-12-20T00:46:27.186Z,0.34
2016-12-20T00:47:38.207Z,0.41
2016-12-20T00:48:49.392Z,0.32
2016-12-20T00:50:00.378Z,0.39
2016-12-20T00:51:11.610Z,0.35
2016-12-20T00:52:22.590Z,0.21
2016-12-20T00:53:33.575Z,0.31
2016-12-20T00:54:44.566Z,0.31
2016-12-20T00:55:55.600Z,0.28
2016-12-20T00:57:06.578Z,0.28
2016-12-20T00:58:17.561Z,0.32
2016-12-20T00:59:28.749Z,0.26
2016-12-20T01:00:39.736Z,0.23
2016-12-20T01:01:50.717Z,0.21
2016-12-20T01:03:01.694Z,0.2
2016-12-20T01:04:12.680Z,0.23
2016-12-20T01:05:23.864Z,0.16
2016-12-20T01:06:34.839Z,0.26
2016-12-20T01:07:45.816Z,0.21
2016-12-20T01:08:56.804Z,0.21
2016-12-20T01:10:07.793Z,0.2
2016-12-20T01:11:18.982Z,0.28
2016-12-20T01:12:30.168Z,0.23
2016-12-20T01:13:41.151Z,0.24
2016-12-20T01:14:52.128Z,0.31
2016-12-20T01:16:03.112Z,0.27
2016-12-20T01:17:14.091Z,0.21
2016-12-20T01:18:25.072Z,0.23
2016-12-20T01:19:36.060Z,0.24
2016-12-20T01:20:47.039Z,0.24
2016-12-20T01:21:58.029Z,0.19
2016-12-20T01:23:09.224Z,0.19
2016-12-20T01:24:20.411Z,0.19
2016-12-20T01:25:31.601Z,0.26
2016-12-20T01:26:42.583Z,0.17
2016-12-20T01:27:53.576Z,0.26
2016-12-20T01:29:04.556Z,0.26
2016-12-20T01:30:15.538Z,0.17
2016-12-20T01:31:26.526Z,0.19
2016-12-20T01:32:37.533Z,0.2
2016-12-20T01:33:48.514Z,0.13
2016-12-20T01:34:59.504Z,0.13
2016-12-20T01:36:10.536Z,0.06
2016-12-20T01:37:21.722Z,0.03
2016-12-20T01:38:32.703Z,0.01
2016-12-20T01:39:43.898Z,-0.15
2016-12-20T01:40:54.885Z,-0.04
2016-12-20T01:42:05.867Z,-0.13
2016-12-20T01:43:17.050Z,-0.2
2016-12-20T01:44:28.036Z,-0.1
2016-12-20T01:45:39.018Z,-0.15
2016-12-20T01:46:50.006Z,-0.18
2016-12-20T01:48:00.992Z,-0.15
2016-12-20T01:49:11.981Z,-0.22
2016-12-20T01:50:22.978Z,-0.19
2016-12-20T01:51:34.169Z,-0.23
2016-12-20T01:52:45.157Z,-0.3
2016-12-20T01:53:56.140Z,-0.27
2016-12-20T01:55:07.326Z,-0.23
2016-12-20T01:56:18.310Z,-0.22
2016-12-20T01:57:29.298Z,-0.18
2016-12-20T01:58:40.311Z,-0.27
2016-12-20T01:59:51.299Z,-0.27
2016-12-20T02:01:02.297Z,-0.38
2016-12-20T02:02:13.287Z,-0.33
2016-12-20T02:03:24.465Z,-0.25
2016-12-20T02:04:35.859Z,-0.23
2016-12-20T02:05:46.889Z,-0.23
2016-12-20T02:06:57.881Z,-0.31
2016-12-20T02:08:08.874Z,-0.27
2016-12-20T02:09:19.853Z,-0.3
2016-12-20T02:10:30.836Z,-0.3
2016-12-20T02:11:41.825Z,-0.34
2016-12-20T02:12:52.808Z,-0.33
2016-12-20T02:14:03.796Z,-0.34
2016-12-20T02:15:14.827Z,-0.38
2016-12-20T02:16:25.812Z,-0.4
2016-12-20T02:17:36.987Z,-0.37
2016-12-20T02:18:47.974Z,-0.41
2016-12-20T02:19:58.965Z,-0.34
2016-12-20T02:21:10.197Z,-0.45
2016-12-20T02:22:21.188Z,-0.38
2016-12-20T02:23:32.175Z,-0.33
2016-12-20T02:24:43.156Z,-0.41
2016-12-20T02:25:54.350Z,-0.45
2016-12-20T02:27:05.587Z,-0.46
2016-12-20T02:28:16.575Z,-0.45
2016-12-20T02:29:27.760Z,-0.34
2016-12-20T02:30:38.746Z,-0.43
2016-12-20T02:31:49.728Z,-0.41
2016-12-20T02:33:00.757Z,-0.36
2016-12-20T02:34:11.738Z,-0.38
2016-12-20T02:35:22.720Z,-0.31
2016-12-20T02:36:33.721Z,-0.37
2016-12-20T02:37:44.745Z,-0.36
2016-12-20T02:38:55.982Z,-0.48
2016-12-20T02:40:06.975Z,-0.54
2016-12-20T02:41:17.964Z,-0.56
2016-12-20T02:42:28.944Z,-0.55
2016-12-20T02:43:39.949Z,-0.64
2016-12-20T02:44:50.973Z,-0.56
2016-12-20T02:46:01.995Z,-0.64
2016-12-20T02:47:12.974Z,-0.55
2016-12-20T02:48:23.961Z,-0.52
2016-12-20T02:49:34.948Z,-0.54
2016-12-20T02:50:46.130Z,-0.56
2016-12-20T02:51:57.105Z,-0.43
2016-12-20T02:53:08.093Z,-0.55
2016-12-20T02:54:19.074Z,-0.52
2016-12-20T02:55:30.073Z,-0.51
2016-12-20T02:56:41.055Z,-0.49
2016-12-20T02:57:52.034Z,-0.41
2016-12-20T02:59:03.025Z,-0.41
2016-12-20T03:00:14.010Z,-0.46
2016-12-20T03:01:24.995Z,-0.43
2016-12-20T03:02:35.975Z,-0.37
2016-12-20T03:03:47.161Z,-0.38
2016-12-20T03:04:58.141Z,-0.41
2016-12-20T03:06:09.127Z,-0.43
2016-12-20T03:07:20.110Z,-0.45
2016-12-20T03:08:31.094Z,-0.43
2016-12-20T03:09:42.080Z,-0.46
2016-12-20T03:10:53.096Z,-0.55
2016-12-20T03:12:04.085Z,-0.55
2016-12-20T03:13:15.072Z,-0.54
2016-12-20T03:14:26.060Z,-0.61
2016-12-20T03:15:37.055Z,-0.67
2016-12-20T03:16:48.241Z,-0.76
2016-12-20T03:17:59.420Z,-0.73
2016-12-20T03:19:10.399Z,-0.7
2016-12-20T03:20:21.386Z,-0.74
2016-12-20T03:21:32.376Z,-0.72
2016-12-20T03:22:43.361Z,-0.73
2016-12-20T03:23:54.345Z,-0.7
2016-12-20T03:25:05.326Z,-0.66
2016-12-20T03:26:16.356Z,-0.58
2016-12-20T03:27:27.338Z,-0.64
2016-12-20T03:28:38.316Z,-0.7
2016-12-20T03:29:49.300Z,-0.72
2016-12-20T03:31:00.491Z,-0.66
2016-12-20T03:32:11.473Z,-0.61
2016-12-20T03:33:22.489Z,-0.59
2016-12-20T03:34:33.474Z,-0.59
2016-12-20T03:35:44.464Z,-0.73
2016-12-20T03:36:55.444Z,-0.7
2016-12-20T03:38:06.429Z,-0.69
2016-12-20T03:39:17.617Z,-0.72
2016-12-20T03:40:28.802Z,-0.76
2016-12-20T03:41:39.787Z,-0.76
2016-12-20T03:42:50.770Z,-0.76
2016-12-20T03:44:01.745Z,-0.73
2016-12-20T03:45:12.727Z,-0.7
2016-12-20T03:46:23.714Z,-0.73
2016-12-20T03:47:34.698Z,-0.74
2016-12-20T03:48:45.884Z,-0.7
2016-12-20T03:49:56.864Z,-0.73
2016-12-20T03:51:08.057Z,-0.72
2016-12-20T03:52:19.038Z,-0.69
2016-12-20T03:53:30.015Z,-0.64
2016-12-20T03:54:40.993Z,-0.61
2016-12-20T03:55:51.980Z,-0.7
2016-12-20T03:57:02.991Z,-0.72
2016-12-20T03:58:13.980Z,-0.67
2016-12-20T03:59:24.970Z,-0.66
2016-12-20T04:00:36.000Z,-0.66
2016-12-20T04:01:47.020Z,-0.61
2016-12-20T04:02:58.203Z,-0.64
2016-12-20T04:04:09.191Z,-0.64
2016-12-20T04:05:20.164Z,-0.67
2016-12-20T04:06:31.166Z,-0.7
2016-12-20T04:07:42.151Z,-0.76
2016-12-20T04:08:53.134Z,-0.64
2016-12-20T04:10:04.122Z,-0.62
2016-12-20T04:11:15.108Z,-0.59
2016-12-20T04:12:26.097Z,-0.7
2016-12-20T04:13:37.076Z,-0.69
2016-12-20T04:14:48.054Z,-0.64
2016-12-20T04:15:59.085Z,-0.69
2016-12-20T04:17:10.063Z,-0.72
2016-12-20T04:18:21.050Z,-0.73
2016-12-20T04:19:32.030Z,-0.66
2016-12-20T04:20:43.024Z,-0.66
2016-12-20T04:21:53.999Z,-0.61
2016-12-20T04:23:04.984Z,-0.67
2016-12-20T04:24:15.967Z,-0.69
2016-12-20T04:25:26.953Z,-0.66
2016-12-20T04:26:37.934Z,-0.73
2016-12-20T04:27:49.115Z,-0.62
2016-12-20T04:29:00.101Z,-0.69
2016-12-20T04:30:11.080Z,-0.77
2016-12-20T04:31:22.263Z,-0.72
2016-12-20T04:32:33.249Z,-0.85
2016-12-20T04:33:44.435Z,-0.85
2016-12-20T04:34:55.425Z,-0.79
2016-12-20T04:36:06.462Z,-0.76
2016-12-20T04:37:17.440Z,-0.69
2016-12-20T04:38:28.433Z,-0.82
2016-12-20T04:39:39.416Z,-0.79
2016-12-20T04:40:50.393Z,-0.8
2016-12-20T04:42:01.381Z,-0.84
2016-12-20T04:43:12.390Z,-0.76
2016-12-20T04:44:23.382Z,-0.7
2016-12-20T04:45:34.571Z,-0.74
2016-12-20T04:46:45.755Z,-0.69
2016-12-20T04:47:56.732Z,-0.66
2016-12-20T04:49:08.123Z,-0.66
2016-12-20T04:50:19.106Z,-0.77
2016-12-20T04:51:30.298Z,-0.73
2016-12-20T04:52:41.276Z,-0.69
2016-12-20T04:53:52.455Z,-0.79
2016-12-20T04:55:03.458Z,-0.8
2016-12-20T04:56:14.440Z,-0.69
2016-12-20T04:57:25.426Z,-0.77
2016-12-20T04:58:36.404Z,-0.79
2016-12-20T04:59:47.382Z,-0.77
2016-12-20T05:00:58.397Z,-0.82
2016-12-20T05:02:09.589Z,-0.82
2016-12-20T05:03:20.564Z,-0.82
2016-12-20T05:04:31.544Z,-0.79
2016-12-20T05:05:42.532Z,-0.76
2016-12-20T05:06:53.517Z,-0.72
2016-12-20T05:08:04.497Z,-0.76
2016-12-20T05:09:15.484Z,-0.7
2016-12-20T05:10:26.662Z,-0.74
2016-12-20T05:11:37.636Z,-0.72
2016-12-20T05:12:48.621Z,-0.73
2016-12-20T05:13:59.803Z,-0.82
2016-12-20T05:15:10.782Z,-0.74
2016-12-20T05:16:21.967Z,-0.84
2016-12-20T05:17:32.953Z,-0.74
2016-12-20T05:18:44.143Z,-0.77
2016-12-20T05:19:55.121Z,-0.85
2016-12-20T05:21:06.097Z,-0.85
2016-12-20T05:22:17.277Z,-0.76
2016-12-20T05:23:28.256Z,-0.85
2016-12-20T05:24:39.244Z,-0.84
2016-12-20T05:25:50.283Z,-0.84
2016-12-20T05:27:01.469Z,-0.95
2016-12-20T05:28:12.454Z,-0.87
2016-12-20T05:29:23.432Z,-0.87
2016-12-20T05:30:34.469Z,-0.79
2016-12-20T05:31:45.652Z,-0.82
2016-12-20T05:32:56.641Z,-0.91
2016-12-20T05:34:07.621Z,-0.82
2016-12-20T05:35:18.608Z,-0.93
2016-12-20T05:36:29.582Z,-0.85
2016-12-20T05:37:40.560Z,-0.84
2016-12-20T05:38:51.557Z,-0.87
2016-12-20T05:40:02.565Z,-0.93
2016-12-20T05:41:13.756Z,-0.96
2016-12-20T05:42:24.744Z,-0.96
2016-12-20T05:43:35.730Z,-0.95
2016-12-20T05:44:46.713Z,-0.99
2016-12-20T05:45:57.932Z,-0.95
2016-12-20T05:47:08.921Z,-1.03
2016-12-20T05:48:19.900Z,-1.07
2016-12-20T05:49:31.100Z,-0.99
2016-12-20T05:50:42.081Z,-1.1
2016-12-20T05:51:53.065Z,-0.99
2016-12-20T05:53:04.048Z,-1.03
2016-12-20T05:54:15.026Z,-1.11
2016-12-20T05:55:26.060Z,-1.07
2016-12-20T05:56:37.250Z,-1.16
2016-12-20T05:57:48.223Z,-1.21
2016-12-20T05:58:59.206Z,-1.17
2016-12-20T06:00:10.222Z,-1.11
2016-12-20T06:01:21.209Z,-1.07
2016-12-20T06:02:32.391Z,-1.14
2016-12-20T06:03:43.575Z,-1.13
2016-12-20T06:04:54.555Z,-1.09
2016-12-20T06:06:05.540Z,-1.16
2016-12-20T06:07:16.752Z,-1.09
2016-12-20T06:08:27.732Z,-1.14
2016-12-20T06:09:38.718Z,-1.16
2016-12-20T06:10:49.708Z,-1.22
2016-12-20T06:12:00.890Z,-1.11
2016-12-20T06:13:11.915Z,-1.11
2016-12-20T06:14:23.096Z,-1.17
2016-12-20T06:15:34.078Z,-1.22
2016-12-20T06:16:45.067Z,-1.17
2016-12-20T06:17:56.045Z,-1.17
2016-12-20T06:19:07.029Z,-1.22
2016-12-20T06:20:18.211Z,-1.17
2016-12-20T06:21:29.205Z,-1.19
2016-12-20T06:22:40.189Z,-1.19
2016-12-20T06:23:51.176Z,-1.17
2016-12-20T06:25:02.409Z,-1.17
2016-12-20T06:26:13.597Z,-1.11
2016-12-20T06:27:24.784Z,-1.22
2016-12-20T06:28:35.775Z,-1.17
2016-12-20T06:29:47.170Z,-1.17
2016-12-20T06:30:58.351Z,-1.17
2016-12-20T06:32:09.328Z,-1.24
2016-12-20T06:33:20.507Z,-1.19
2016-12-20T06:34:31.688Z,-1.17
2016-12-20T06:35:42.669Z,-1.14
2016-12-20T06:36:53.655Z,-1.17
2016-12-20T06:38:04.849Z,-1.19
2016-12-20T06:39:15.840Z,-1.17
2016-12-20T06:40:26.820Z,-1.32
2016-12-20T06:41:37.800Z,-1.34
2016-12-20T06:42:48.781Z,-1.24
2016-12-20T06:43:59.772Z,-1.31
2016-12-20T06:45:10.971Z,-1.31
2016-12-20T06:46:21.946Z,-1.35
2016-12-20T06:47:32.929Z,-1.34
2016-12-20T06:48:43.913Z,-1.32
2016-12-20T06:49:54.896Z,-1.35
2016-12-20T06:51:05.874Z,-1.34
2016-12-20T06:52:16.853Z,-1.34
2016-12-20T06:53:27.837Z,-1.31
2016-12-20T06:54:38.852Z,-1.35
2016-12-20T06:55:50.087Z,-1.32
2016-12-20T06:57:01.072Z,-1.37
2016-12-20T06:58:12.053Z,-1.37
2016-12-20T06:59:23.238Z,-1.31
2016-12-20T07:00:34.415Z,-1.31
2016-12-20T07:01:45.413Z,-1.28
2016-12-20T07:02:56.600Z,-1.28
2016-12-20T07:04:07.981Z,-1.32
2016-12-20T07:05:18.993Z,-1.3
2016-12-20T07:06:29.981Z,-1.25
2016-12-20T07:07:40.965Z,-1.3
2016-12-20T07:08:51.941Z,-1.25
2016-12-20T07:10:02.919Z,-1.31
2016-12-20T07:11:13.904Z,-1.3
2016-12-20T07:12:24.919Z,-1.22
2016-12-20T07:13:36.102Z,-1.21
2016-12-20T07:14:47.089Z,-1.27
2016-12-20T07:15:58.274Z,-1.27
2016-12-20T07:17:09.252Z,-1.3
2016-12-20T07:18:20.236Z,-1.31
2016-12-20T07:19:31.221Z,-1.22
2016-12-20T07:20:42.207Z,-1.21
2016-12-20T07:21:53.190Z,-1.27
2016-12-20T07:23:04.171Z,-1.25
2016-12-20T07:24:15.364Z,-1.19
2016-12-20T07:25:26.342Z,-1.24
2016-12-20T07:26:37.318Z,-1.22
2016-12-20T07:27:48.312Z,-1.3
2016-12-20T07:28:59.293Z,-1.22
2016-12-20T07:30:10.267Z,-1.37
2016-12-20T07:31:21.259Z,-1.35
2016-12-20T07:32:32.438Z,-1.31
2016-12-20T07:33:43.422Z,-1.34
2016-12-20T07:34:54.405Z,-1.31
2016-12-20T07:36:05.590Z,-1.28
2016-12-20T07:37:16.572Z,-1.25
2016-12-20T07:38:27.556Z,-1.34
2016-12-20T07:39:38.541Z,-1.24
2016-12-20T07:40:49.721Z,-1.32
2016-12-20T07:42:00.698Z,-1.32
2016-12-20T07:43:11.685Z,-1.32
2016-12-20T07:44:22.873Z,-1.3
2016-12-20T07:45:33.860Z,-1.25
2016-12-20T07:46:44.868Z,-1.25
2016-12-20T07:47:55.851Z,-1.31
2016-12-20T07:49:06.832Z,-1.25
2016-12-20T07:50:17.834Z,-1.27
2016-12-20T07:51:28.817Z,-1.27
2016-12-20T07:52:39.998Z,-1.31
2016-12-20T07:53:51.185Z,-1.31
2016-12-20T07:55:02.359Z,-1.32
2016-12-20T07:56:13.753Z,-1.37
2016-12-20T07:57:24.735Z,-1.31
2016-12-20T07:58:35.741Z,-1.32
2016-12-20T07:59:46.715Z,-1.28
2016-12-20T08:00:57.742Z,-1.31
2016-12-20T08:02:08.729Z,-1.31
2016-12-20T08:03:19.916Z,-1.31
2016-12-20T08:04:30.894Z,-1.24
2016-12-20T08:05:41.877Z,-1.3
2016-12-20T08:06:52.859Z,-1.28
2016-12-20T08:08:03.847Z,-1.27
2016-12-20T08:09:14.817Z,-1.22
2016-12-20T08:10:25.804Z,-1.17
2016-12-20T08:11:36.786Z,-1.13
2016-12-20T08:12:47.766Z,-1.09
2016-12-20T08:13:59.161Z,-0.96
2016-12-20T08:15:10.144Z,-1.01
2016-12-20T08:16:21.323Z,-0.92
2016-12-20T08:17:32.308Z,-0.95
2016-12-20T08:18:43.296Z,-0.76
2016-12-20T08:19:54.290Z,-0.74
2016-12-20T08:21:05.308Z,-0.59
2016-12-20T08:22:16.289Z,-0.41
2016-12-20T08:23:27.276Z,-0.43
2016-12-20T08:24:38.453Z,0.02
2016-12-20T08:25:49.439Z,0.17
2016-12-20T08:27:00.621Z,0.34
2016-12-20T08:28:11.606Z,0.37
2016-12-20T08:29:22.587Z,0.58
2016-12-20T08:30:33.568Z,0.76
2016-12-20T08:31:44.574Z,1.04
2016-12-20T08:32:55.968Z,1.08
2016-12-20T08:34:07.150Z,0.99
2016-12-20T08:35:18.127Z,0.96
2016-12-20T08:36:29.113Z,1
2016-12-20T08:37:40.294Z,1.14
2016-12-20T08:38:51.272Z,1.08
2016-12-20T08:40:02.305Z,1.14
2016-12-20T08:41:13.288Z,1.2
2016-12-20T08:42:24.272Z,1.38
2016-12-20T08:43:35.257Z,1.65
2016-12-20T08:44:46.244Z,1.78
2016-12-20T08:45:57.228Z,2.11
2016-12-20T08:47:08.213Z,2.27
2016-12-20T08:48:19.232Z,2.49
2016-12-20T08:49:30.418Z,2.62
2016-12-20T08:50:41.417Z,2.67
2016-12-20T08:51:52.435Z,2.93
2016-12-20T08:53:03.424Z,3.14
2016-12-20T08:54:14.421Z,3.2
2016-12-20T08:55:25.811Z,3.26
2016-12-20T08:56:36.796Z,3.42
2016-12-20T08:57:47.790Z,3.64
2016-12-20T08:58:58.774Z,3.97
2016-12-20T09:00:09.960Z,4.2
2016-12-20T09:01:20.946Z,4.58
2016-12-20T09:02:31.936Z,4.92
2016-12-20T09:03:42.922Z,5.23
2016-12-20T09:04:53.913Z,5.52
2016-12-20T09:06:04.915Z,5.77
2016-12-20T09:07:16.106Z,5.96
2016-12-20T09:08:27.093Z,6.14
2016-12-20T09:09:38.082Z,6.25
2016-12-20T09:10:49.276Z,6.54
2016-12-20T09:12:00.265Z,6.94
2016-12-20T09:13:11.257Z,7.29
2016-12-20T09:14:22.445Z,7.68
2016-12-20T09:15:33.433Z,7.92
2016-12-20T09:16:44.632Z,8.09
2016-12-20T09:17:55.621Z,8.21
2016-12-20T09:19:06.613Z,8.32
2016-12-20T09:20:17.601Z,8.43
2016-12-20T09:21:28.592Z,8.43
2016-12-20T09:22:39.587Z,8.32
2016-12-20T09:23:50.580Z,8.43
2016-12-20T09:25:01.573Z,8.68
2016-12-20T09:26:12.563Z,8.65
2016-12-20T09:27:23.565Z,8.92
2016-12-20T09:28:34.568Z,9.01
2016-12-20T09:29:45.752Z,9.2
2016-12-20T09:30:56.744Z,9.32
2016-12-20T09:32:07.748Z,9.55
2016-12-20T09:33:18.743Z,9.62
2016-12-20T09:34:29.738Z,9.5
2016-12-20T09:35:40.727Z,9.47
2016-12-20T09:36:51.721Z,9.42
2016-12-20T09:38:02.720Z,9.52
2016-12-20T09:39:13.713Z,9.62
2016-12-20T09:40:24.912Z,9.88
2016-12-20T09:41:35.912Z,10.23
2016-12-20T09:42:46.904Z,10.42
2016-12-20T09:43:57.903Z,10.59
2016-12-20T09:45:08.931Z,10.67
2016-12-20T09:46:19.928Z,10.8
2016-12-20T09:47:31.129Z,10.65
2016-12-20T09:48:42.333Z,10.84
2016-12-20T09:49:53.328Z,10.66
2016-12-20T09:51:04.327Z,10.77
2016-12-20T09:52:15.329Z,10.85
2016-12-20T09:53:26.322Z,10.79
2016-12-20T09:54:37.355Z,11.02
2016-12-20T09:55:48.381Z,11.2
2016-12-20T09:56:59.385Z,11.34
2016-12-20T09:58:10.588Z,11.45
2016-12-20T09:59:21.587Z,11.48
2016-12-20T10:00:32.634Z,11.41
2016-12-20T10:01:43.832Z,11.51
2016-12-20T10:02:54.828Z,11.57
2016-12-20T10:04:06.025Z,11.57
2016-12-20T10:05:17.033Z,11.71
2016-12-20T10:06:28.034Z,11.86
2016-12-20T10:07:39.035Z,11.78
2016-12-20T10:08:50.036Z,11.79
2016-12-20T10:10:01.030Z,11.89
2016-12-20T10:11:12.030Z,11.7
2016-12-20T10:12:23.027Z,11.34
2016-12-20T10:13:34.045Z,11.09
2016-12-20T10:14:45.045Z,11.13
2016-12-20T10:15:56.041Z,11.15
2016-12-20T10:17:07.047Z,11.08
2016-12-20T10:18:18.040Z,11.16
2016-12-20T10:19:29.044Z,11.09
2016-12-20T10:20:40.094Z,11.46
2016-12-20T10:21:51.111Z,11.35
2016-12-20T10:23:02.108Z,11.28
2016-12-20T10:24:13.110Z,11.48
2016-12-20T10:25:24.113Z,11.66
2016-12-20T10:26:35.136Z,11.78
2016-12-20T10:27:46.161Z,11.82
2016-12-20T10:28:57.156Z,12.16
2016-12-20T10:30:08.159Z,12.37
2016-12-20T10:31:19.158Z,12.58
2016-12-20T10:32:30.160Z,12.69
2016-12-20T10:33:41.164Z,12.92
2016-12-20T10:34:52.154Z,12.98
2016-12-20T10:36:03.345Z,13.21
2016-12-20T10:37:14.338Z,13.36
2016-12-20T10:38:25.333Z,13.4
2016-12-20T10:39:36.324Z,13.19
2016-12-20T10:40:47.520Z,13.06
2016-12-20T10:41:58.526Z,13.07
2016-12-20T10:43:09.527Z,13.03
2016-12-20T10:44:20.724Z,13.06
2016-12-20T10:45:31.774Z,12.74
2016-12-20T10:46:42.977Z,12.58
2016-12-20T10:47:53.981Z,12.56
2016-12-20T10:49:04.977Z,12.56
2016-12-20T10:50:16.056Z,12.26
2016-12-20T10:51:27.265Z,12.16
2016-12-20T10:52:38.267Z,11.89
2016-12-20T10:53:49.272Z,11.53
2016-12-20T10:55:00.276Z,10.84
2016-12-20T10:56:11.275Z,10.54
2016-12-20T10:57:22.281Z,10.14
2016-12-20T10:58:33.276Z,10.17
2016-12-20T10:59:44.285Z,10.21
2016-12-20T11:00:55.294Z,10.49
2016-12-20T11:02:06.296Z,10.61
2016-12-20T11:03:17.295Z,10.51
2016-12-20T11:04:28.317Z,10.58
2016-12-20T11:05:39.317Z,10.26
2016-12-20T11:06:50.524Z,10.38
2016-12-20T11:08:01.727Z,10.26
2016-12-20T11:09:12.731Z,10.35
2016-12-20T11:10:23.731Z,10.42
2016-12-20T11:11:34.727Z,10.13
2016-12-20T11:12:45.733Z,10.08
2016-12-20T11:13:56.737Z,9.95
2016-12-20T11:15:07.784Z,9.66
2016-12-20T11:16:18.981Z,9.53
2016-12-20T11:17:30.018Z,9.47
2016-12-20T11:18:41.017Z,9.09
2016-12-20T11:19:52.052Z,8.87
2016-12-20T11:21:03.051Z,8.57
2016-12-20T11:22:14.242Z,8.47
2016-12-20T11:23:25.241Z,8.39
2016-12-20T11:24:36.230Z,8.25
2016-12-20T11:25:47.216Z,8.22
2016-12-20T11:26:58.216Z,8.24
2016-12-20T11:28:09.217Z,8.36
2016-12-20T11:29:20.410Z,8.34
2016-12-20T11:30:31.453Z,8.06
2016-12-20T11:31:42.440Z,7.88
2016-12-20T11:32:53.439Z,7.91
2016-12-20T11:34:04.431Z,7.74
2016-12-20T11:35:15.475Z,7.37
2016-12-20T11:36:26.465Z,7.16
2016-12-20T11:37:37.457Z,7.13
2016-12-20T11:38:48.448Z,7.03
2016-12-20T11:39:59.458Z,6.9
2016-12-20T11:41:10.531Z,6.9
2016-12-20T11:42:21.516Z,7.05
2016-12-20T11:43:32.716Z,7.09
2016-12-20T11:44:43.733Z,7.22
2016-12-20T11:45:54.732Z,7.22
2016-12-20T11:47:05.728Z,7.47
2016-12-20T11:48:16.712Z,7.63
2016-12-20T11:49:27.708Z,7.73
2016-12-20T11:50:38.907Z,7.74
2016-12-20T11:51:49.902Z,7.47
2016-12-20T11:53:00.887Z,7.44
2016-12-20T11:54:11.881Z,7.63
2016-12-20T11:55:22.881Z,7.77
2016-12-20T11:56:33.870Z,7.73
2016-12-20T11:57:44.867Z,7.73
2016-12-20T11:58:55.854Z,7.8
2016-12-20T12:00:06.841Z,7.92
2016-12-20T12:01:18.259Z,8.04
2016-12-20T12:02:29.255Z,8.35
2016-12-20T12:03:40.251Z,8.64
2016-12-20T12:04:51.455Z,8.92
2016-12-20T12:06:02.446Z,8.82
2016-12-20T12:07:13.436Z,8.9
2016-12-20T12:08:24.421Z,8.74
2016-12-20T12:09:35.609Z,8.82
2016-12-20T12:10:46.623Z,8.94
2016-12-20T12:11:57.622Z,9
2016-12-20T12:13:08.607Z,9.03
2016-12-20T12:14:19.595Z,8.92
2016-12-20T12:15:30.582Z,8.62
2016-12-20T12:16:41.563Z,8.34
2016-12-20T12:17:52.547Z,8.07
2016-12-20T12:19:03.541Z,7.71
2016-12-20T12:20:14.538Z,7.56
2016-12-20T12:21:25.543Z,7.33
2016-12-20T12:22:36.530Z,7.21
2016-12-20T12:23:47.516Z,7.09
2016-12-20T12:24:58.503Z,7.26
2016-12-20T12:26:09.491Z,7.36
2016-12-20T12:27:20.480Z,7.61
2016-12-20T12:28:31.477Z,7.8
2016-12-20T12:29:42.471Z,7.88
2016-12-20T12:30:53.655Z,8.06
2016-12-20T12:32:04.852Z,8.46
2016-12-20T12:33:15.838Z,8.6
2016-12-20T12:34:26.822Z,8.64
2016-12-20T12:35:37.896Z,8.74
2016-12-20T12:36:48.901Z,8.57
2016-12-20T12:37:59.900Z,8.61
2016-12-20T12:39:10.892Z,8.92
2016-12-20T12:40:21.884Z,9.08
2016-12-20T12:41:33.068Z,9
2016-12-20T12:42:44.050Z,8.98
2016-12-20T12:43:55.040Z,8.92
2016-12-20T12:45:06.021Z,8.87
2016-12-20T12:46:17.009Z,8.92
2016-12-20T12:47:28.004Z,8.86
2016-12-20T12:48:38.989Z,9.01
2016-12-20T12:49:49.980Z,8.67
2016-12-20T12:51:00.972Z,8.43
2016-12-20T12:52:11.966Z,8.53
2016-12-20T12:53:22.951Z,8.39
2016-12-20T12:54:34.340Z,8.35
2016-12-20T12:55:45.331Z,8.26
2016-12-20T12:56:56.321Z,8.25
2016-12-20T12:58:07.317Z,8.25
2016-12-20T12:59:18.306Z,8.13
2016-12-20T13:00:29.494Z,8.11
2016-12-20T13:01:40.489Z,7.92
2016-12-20T13:02:51.676Z,7.71
2016-12-20T13:04:02.863Z,7.52
2016-12-20T13:05:13.861Z,7.33
2016-12-20T13:06:24.850Z,7.33
2016-12-20T13:07:35.834Z,7.34
2016-12-20T13:08:46.823Z,7.49
2016-12-20T13:09:57.818Z,7.54
2016-12-20T13:11:09.008Z,7.58
2016-12-20T13:12:19.985Z,7.64
2016-12-20T13:13:30.971Z,7.52
2016-12-20T13:14:42.365Z,7.48
2016-12-20T13:15:53.346Z,7.37
2016-12-20T13:17:04.364Z,7.29
2016-12-20T13:18:15.352Z,7.34
2016-12-20T13:19:26.388Z,7.4
2016-12-20T13:20:37.373Z,7.3
2016-12-20T13:21:48.360Z,7.13
2016-12-20T13:22:59.555Z,7.01
2016-12-20T13:24:10.544Z,7
2016-12-20T13:25:21.538Z,6.85
2016-12-20T13:26:32.533Z,6.73
2016-12-20T13:27:43.551Z,6.55
2016-12-20T13:28:54.738Z,6.52
2016-12-20T13:30:05.717Z,6.37
2016-12-20T13:31:16.703Z,6.25
2016-12-20T13:32:27.893Z,6.25
2016-12-20T13:33:38.895Z,6.14
2016-12-20T13:34:50.081Z,6.25
2016-12-20T13:36:01.068Z,6.21
2016-12-20T13:37:12.053Z,6.36
2016-12-20T13:38:23.035Z,6.42
2016-12-20T13:39:34.022Z,6.43
2016-12-20T13:40:45.009Z,6.54
2016-12-20T13:41:56.191Z,6.68
2016-12-20T13:43:07.188Z,6.75
2016-12-20T13:44:18.180Z,6.97
2016-12-20T13:45:29.171Z,6.97
2016-12-20T13:46:40.158Z,6.95
2016-12-20T13:47:51.144Z,6.76
2016-12-20T13:49:02.155Z,6.61
2016-12-20T13:50:13.143Z,6.7
2016-12-20T13:51:24.131Z,6.72
2016-12-20T13:52:35.315Z,6.68
2016-12-20T13:53:46.304Z,6.55
2016-12-20T13:54:57.349Z,6.42
2016-12-20T13:56:08.390Z,6.26
2016-12-20T13:57:19.375Z,6.1
2016-12-20T13:58:30.755Z,5.89
2016-12-20T13:59:41.748Z,5.8
2016-12-20T14:00:52.741Z,5.64
2016-12-20T14:02:03.779Z,5.52
2016-12-20T14:03:14.763Z,5.45
2016-12-20T14:04:25.748Z,5.49
2016-12-20T14:05:36.736Z,5.45
2016-12-20T14:06:47.784Z,5.45
2016-12-20T14:07:58.820Z,5.28
2016-12-20T14:09:09.811Z,5.21
2016-12-20T14:10:21.005Z,5.06
2016-12-20T14:11:32.195Z,4.98
2016-12-20T14:12:43.176Z,4.97
2016-12-20T14:13:54.358Z,4.88
2016-12-20T14:15:05.542Z,4.88
2016-12-20T14:16:16.546Z,4.85
2016-12-20T14:17:27.545Z,4.75
2016-12-20T14:18:38.529Z,4.83
2016-12-20T14:19:49.564Z,4.85
2016-12-20T14:21:00.551Z,4.66
2016-12-20T14:22:11.741Z,4.65
2016-12-20T14:23:22.723Z,4.58
2016-12-20T14:24:34.106Z,4.6
2016-12-20T14:25:45.294Z,4.6
2016-12-20T14:26:56.484Z,4.5
2016-12-20T14:28:07.477Z,4.3
2016-12-20T14:29:18.450Z,4.28
2016-12-20T14:30:29.439Z,4.22
2016-12-20T14:31:40.423Z,4.17
2016-12-20T14:32:51.609Z,4.14
2016-12-20T14:34:02.603Z,3.99
2016-12-20T14:35:13.585Z,4
2016-12-20T14:36:24.571Z,3.99
2016-12-20T14:37:35.753Z,4.07
2016-12-20T14:38:46.750Z,4.07
2016-12-20T14:39:57.746Z,3.99
2016-12-20T14:41:08.931Z,3.96
2016-12-20T14:42:19.900Z,3.85
2016-12-20T14:43:31.093Z,3.93
2016-12-20T14:44:42.077Z,3.81
2016-12-20T14:45:53.068Z,3.72
2016-12-20T14:47:04.054Z,3.67
2016-12-20T14:48:15.035Z,3.69
2016-12-20T14:49:26.008Z,3.63
2016-12-20T14:50:36.995Z,3.58
2016-12-20T14:51:47.980Z,3.57
2016-12-20T14:52:58.965Z,3.48
2016-12-20T14:54:09.980Z,3.54
2016-12-20T14:55:21.017Z,3.42
2016-12-20T14:56:32.029Z,3.46
2016-12-20T14:57:43.414Z,3.45
2016-12-20T14:58:54.400Z,3.35
2016-12-20T15:00:05.384Z,3.37
2016-12-20T15:01:16.422Z,3.32
2016-12-20T15:02:27.409Z,3.3
2016-12-20T15:03:38.395Z,3.27
2016-12-20T15:04:49.578Z,3.26
2016-12-20T15:06:00.570Z,3.17
2016-12-20T15:07:11.605Z,3.11
2016-12-20T15:08:22.597Z,3.17
2016-12-20T15:09:33.583Z,3.14
2016-12-20T15:10:44.566Z,3.14
2016-12-20T15:11:55.747Z,3.19
2016-12-20T15:13:06.781Z,3.01
2016-12-20T15:14:17.772Z,3.03
2016-12-20T15:15:28.759Z,2.9
2016-12-20T15:16:39.744Z,2.83
2016-12-20T15:17:50.723Z,2.73
2016-12-20T15:19:01.760Z,2.62
2016-12-20T15:20:12.754Z,2.62
2016-12-20T15:21:23.740Z,2.59
2016-12-20T15:22:34.727Z,2.55
2016-12-20T15:23:45.708Z,2.54
2016-12-20T15:24:56.773Z,2.51
2016-12-20T15:26:07.976Z,2.48
2016-12-20T15:27:18.957Z,2.51
2016-12-20T15:28:29.943Z,2.42
2016-12-20T15:29:40.929Z,2.4
2016-12-20T15:30:51.943Z,2.42